sensor_id;sensor_type;location;lat;lon;timestamp;temperature;humidity
13684;DHT22;6914;53.552;9.908;2023-02-13T00:01:53;7.80;99.90
13684;DHT22;6914;53.552;9.908;2023-02-13T00:04:21;7.00;99.90
13684;DHT22;6914;53.552;9.908;2023-02-13T00:06:51;7.10;99.90
13684;DHT22;6914;53.552;9.908;2023-02-13T00:09:20;8.80;99.90
13684;DHT22;6914;53.552;9.908;2023-02-13T00:11:47;7.00;99.90
13684;DHT22;6914;53.552;9.908;2023-02-13T00:14:15;7.10;99.90
13684;DHT22;6914;53.552;9.908;2023-02-13T00:16:42;7.30;99.90
13684;DHT22;6914;53.552;9.908;2023-02-13T00:19:09;7.10;99.90
13684;DHT22;6914;53.552;9.908;2023-02-13T00:21:37;8.50;99.90
13684;DHT22;6914;53.552;9.908;2023-02-13T00:24:05;7.20;99.90
13684;DHT22;6914;53.552;9.908;2023-02-13T00:26:33;9.30;99.90
13684;DHT22;6914;53.552;9.908;2023-02-13T00:29:00;7.30;99.90
13684;DHT22;6914;53.552;9.908;2023-02-13T00:31:27;7.10;99.90
13684;DHT22;6914;53.552;9.908;2023-02-13T00:33:54;7.10;99.90
13684;DHT22;6914;53.552;9.908;2023-02-13T00:36:22;7.50;99.90
13684;DHT22;6914;53.552;9.908;2023-02-13T00:38:52;7.10;99.90
13684;DHT22;6914;53.552;9.908;2023-02-13T00:41:21;7.00;99.90
13684;DHT22;6914;53.552;9.908;2023-02-13T00:43:49;6.80;99.90
13684;DHT22;6914;53.552;9.908;2023-02-13T00:46:19;7.10;99.90
13684;DHT22;6914;53.552;9.908;2023-02-13T00:48:46;7.00;99.90
13684;DHT22;6914;53.552;9.908;2023-02-13T00:51:13;7.00;99.90
13684;DHT22;6914;53.552;9.908;2023-02-13T00:53:40;7.00;99.90
13684;DHT22;6914;53.552;9.908;2023-02-13T00:56:08;7.00;99.90
13684;DHT22;6914;53.552;9.908;2023-02-13T00:58:35;7.00;99.90
13684;DHT22;6914;53.552;9.908;2023-02-13T01:01:05;6.80;99.90
13684;DHT22;6914;53.552;9.908;2023-02-13T01:03:32;8.70;99.90
13684;DHT22;6914;53.552;9.908;2023-02-13T01:05:58;7.00;99.90
13684;DHT22;6914;53.552;9.908;2023-02-13T01:08:25;6.90;99.90
13684;DHT22;6914;53.552;9.908;2023-02-13T01:10:54;6.00;99.90
13684;DHT22;6914;53.552;9.908;2023-02-13T01:13:23;6.80;99.90
13684;DHT22;6914;53.552;9.908;2023-02-13T01:15:50;6.90;99.90
13684;DHT22;6914;53.552;9.908;2023-02-13T01:18:20;7.00;99.90
13684;DHT22;6914;53.552;9.908;2023-02-13T01:20:55;8.00;99.90
13684;DHT22;6914;53.552;9.908;2023-02-13T01:23:22;6.90;99.90
13684;DHT22;6914;53.552;9.908;2023-02-13T01:25:51;6.90;99.90
13684;DHT22;6914;53.552;9.908;2023-02-13T01:28:19;6.90;99.90
13684;DHT22;6914;53.552;9.908;2023-02-13T01:30:56;6.00;99.90
13684;DHT22;6914;53.552;9.908;2023-02-13T01:33:23;6.80;99.90
13684;DHT22;6914;53.552;9.908;2023-02-13T01:35:54;6.80;99.90
13684;DHT22;6914;53.552;9.908;2023-02-13T01:38:22;6.90;99.90
13684;DHT22;6914;53.552;9.908;2023-02-13T01:40:51;6.90;99.90
13684;DHT22;6914;53.552;9.908;2023-02-13T01:43:20;6.80;99.90
13684;DHT22;6914;53.552;9.908;2023-02-13T01:45:49;6.80;99.90
13684;DHT22;6914;53.552;9.908;2023-02-13T01:48:22;6.80;99.90
13684;DHT22;6914;53.552;9.908;2023-02-13T01:50:54;6.90;99.90
13684;DHT22;6914;53.552;9.908;2023-02-13T01:53:25;6.90;99.90
13684;DHT22;6914;53.552;9.908;2023-02-13T01:55:55;6.90;99.90
13684;DHT22;6914;53.552;9.908;2023-02-13T01:58:26;6.90;99.90
13684;DHT22;6914;53.552;9.908;2023-02-13T02:01:01;6.80;99.90
13684;DHT22;6914;53.552;9.908;2023-02-13T02:03:33;6.80;99.90
13684;DHT22;6914;53.552;9.908;2023-02-13T02:06:01;6.80;99.90
13684;DHT22;6914;53.552;9.908;2023-02-13T02:08:29;6.90;99.90
13684;DHT22;6914;53.552;9.908;2023-02-13T02:11:01;6.90;99.90
13684;DHT22;6914;53.552;9.908;2023-02-13T02:13:29;6.70;99.90
13684;DHT22;6914;53.552;9.908;2023-02-13T02:15:56;6.70;99.90
13684;DHT22;6914;53.552;9.908;2023-02-13T02:18:23;6.80;99.90
13684;DHT22;6914;53.552;9.908;2023-02-13T02:21:20;6.80;99.90
13684;DHT22;6914;53.552;9.908;2023-02-13T02:24:16;6.60;99.90
13684;DHT22;6914;53.552;9.908;2023-02-13T02:30:12;7.00;99.90
13684;DHT22;6914;53.552;9.908;2023-02-13T02:36:10;6.80;99.90
13684;DHT22;6914;53.552;9.908;2023-02-13T02:38:56;6.40;99.90
13684;DHT22;6914;53.552;9.908;2023-02-13T02:41:33;6.80;99.90
13684;DHT22;6914;53.552;9.908;2023-02-13T02:44:15;6.50;99.90
13684;DHT22;6914;53.552;9.908;2023-02-13T02:46:56;6.70;99.90
13684;DHT22;6914;53.552;9.908;2023-02-13T02:49:50;6.70;99.90
13684;DHT22;6914;53.552;9.908;2023-02-13T02:52:38;6.60;99.90
13684;DHT22;6914;53.552;9.908;2023-02-13T02:55:12;6.70;99.90
13684;DHT22;6914;53.552;9.908;2023-02-13T02:57:45;7.00;99.90
13684;DHT22;6914;53.552;9.908;2023-02-13T03:00:38;6.50;99.90
13684;DHT22;6914;53.552;9.908;2023-02-13T03:03:26;6.50;99.90
13684;DHT22;6914;53.552;9.908;2023-02-13T03:06:14;6.30;99.90
13684;DHT22;6914;53.552;9.908;2023-02-13T03:08:52;6.90;99.90
13684;DHT22;6914;53.552;9.908;2023-02-13T03:11:40;6.60;99.90
13684;DHT22;6914;53.552;9.908;2023-02-13T03:14:27;6.50;99.90
13684;DHT22;6914;53.552;9.908;2023-02-13T03:16:57;6.70;99.90
13684;DHT22;6914;53.552;9.908;2023-02-13T03:20:13;6.60;99.90
13684;DHT22;6914;53.552;9.908;2023-02-13T03:23:16;6.80;99.90
13684;DHT22;6914;53.552;9.908;2023-02-13T03:26:13;6.50;99.90
13684;DHT22;6914;53.552;9.908;2023-02-13T03:28:54;6.90;99.90
13684;DHT22;6914;53.552;9.908;2023-02-13T03:31:49;6.40;99.90
13684;DHT22;6914;53.552;9.908;2023-02-13T03:34:28;6.50;99.90
13684;DHT22;6914;53.552;9.908;2023-02-13T03:37:29;6.20;99.90
13684;DHT22;6914;53.552;9.908;2023-02-13T03:40:18;6.50;99.90
13684;DHT22;6914;53.552;9.908;2023-02-13T03:43:02;6.70;99.90
13684;DHT22;6914;53.552;9.908;2023-02-13T03:45:32;6.50;99.90
13684;DHT22;6914;53.552;9.908;2023-02-13T03:48:19;6.50;99.90
13684;DHT22;6914;53.552;9.908;2023-02-13T03:51:06;5.10;99.90
13684;DHT22;6914;53.552;9.908;2023-02-13T03:53:35;6.60;99.90
13684;DHT22;6914;53.552;9.908;2023-02-13T03:56:05;6.60;99.90
13684;DHT22;6914;53.552;9.908;2023-02-13T03:58:55;6.50;99.90
13684;DHT22;6914;53.552;9.908;2023-02-13T04:01:45;6.50;99.90
13684;DHT22;6914;53.552;9.908;2023-02-13T04:04:20;6.40;99.90
13684;DHT22;6914;53.552;9.908;2023-02-13T04:06:51;6.30;99.90
13684;DHT22;6914;53.552;9.908;2023-02-13T04:09:22;6.40;99.90
13684;DHT22;6914;53.552;9.908;2023-02-13T04:11:55;6.40;99.90
13684;DHT22;6914;53.552;9.908;2023-02-13T04:14:27;6.50;99.90
13684;DHT22;6914;53.552;9.908;2023-02-13T04:17:02;6.40;99.90
13684;DHT22;6914;53.552;9.908;2023-02-13T04:19:31;6.50;99.90
13684;DHT22;6914;53.552;9.908;2023-02-13T04:22:00;6.60;99.90
13684;DHT22;6914;53.552;9.908;2023-02-13T04:24:28;6.50;99.90
13684;DHT22;6914;53.552;9.908;2023-02-13T04:26:56;6.40;99.90
13684;DHT22;6914;53.552;9.908;2023-02-13T04:29:25;6.50;99.90
13684;DHT22;6914;53.552;9.908;2023-02-13T04:31:52;6.50;99.90
13684;DHT22;6914;53.552;9.908;2023-02-13T04:34:22;6.40;99.90
13684;DHT22;6914;53.552;9.908;2023-02-13T04:36:48;6.40;99.90
13684;DHT22;6914;53.552;9.908;2023-02-13T04:39:15;5.80;99.90
13684;DHT22;6914;53.552;9.908;2023-02-13T04:41:42;6.40;99.90
13684;DHT22;6914;53.552;9.908;2023-02-13T04:44:09;6.50;99.90
13684;DHT22;6914;53.552;9.908;2023-02-13T04:46:37;6.50;99.90
13684;DHT22;6914;53.552;9.908;2023-02-13T04:49:03;6.00;99.90
13684;DHT22;6914;53.552;9.908;2023-02-13T04:51:30;5.10;99.90
13684;DHT22;6914;53.552;9.908;2023-02-13T04:53:57;6.30;99.90
13684;DHT22;6914;53.552;9.908;2023-02-13T04:56:24;6.30;99.90
13684;DHT22;6914;53.552;9.908;2023-02-13T04:58:51;6.50;99.90
13684;DHT22;6914;53.552;9.908;2023-02-13T05:01:21;6.50;99.90
13684;DHT22;6914;53.552;9.908;2023-02-13T05:03:52;6.30;99.90
13684;DHT22;6914;53.552;9.908;2023-02-13T05:06:21;6.60;99.90
13684;DHT22;6914;53.552;9.908;2023-02-13T05:08:48;6.40;99.90
13684;DHT22;6914;53.552;9.908;2023-02-13T05:11:16;6.30;99.90
13684;DHT22;6914;53.552;9.908;2023-02-13T05:13:43;5.80;99.90
13684;DHT22;6914;53.552;9.908;2023-02-13T05:16:09;6.40;99.90
13684;DHT22;6914;53.552;9.908;2023-02-13T05:18:36;6.50;99.90
13684;DHT22;6914;53.552;9.908;2023-02-13T05:21:05;6.40;99.90
13684;DHT22;6914;53.552;9.908;2023-02-13T05:23:49;6.40;99.90
13684;DHT22;6914;53.552;9.908;2023-02-13T05:26:16;6.50;99.90
13684;DHT22;6914;53.552;9.908;2023-02-13T05:28:43;6.40;99.90
13684;DHT22;6914;53.552;9.908;2023-02-13T05:31:27;6.50;99.90
13684;DHT22;6914;53.552;9.908;2023-02-13T05:33:57;6.40;99.90
13684;DHT22;6914;53.552;9.908;2023-02-13T05:36:25;6.70;99.90
13684;DHT22;6914;53.552;9.908;2023-02-13T05:38:52;6.30;99.90
13684;DHT22;6914;53.552;9.908;2023-02-13T05:41:21;4.80;99.90
13684;DHT22;6914;53.552;9.908;2023-02-13T05:43:48;6.20;99.90
13684;DHT22;6914;53.552;9.908;2023-02-13T05:46:14;6.20;99.90
13684;DHT22;6914;53.552;9.908;2023-02-13T05:48:41;6.10;99.90
13684;DHT22;6914;53.552;9.908;2023-02-13T05:51:08;5.70;99.90
13684;DHT22;6914;53.552;9.908;2023-02-13T05:53:36;6.40;99.90
13684;DHT22;6914;53.552;9.908;2023-02-13T05:56:05;6.20;99.90
13684;DHT22;6914;53.552;9.908;2023-02-13T05:58:32;6.40;99.90
13684;DHT22;6914;53.552;9.908;2023-02-13T06:00:59;6.90;99.90
13684;DHT22;6914;53.552;9.908;2023-02-13T06:03:28;6.30;99.90
13684;DHT22;6914;53.552;9.908;2023-02-13T06:05:57;6.20;99.90
13684;DHT22;6914;53.552;9.908;2023-02-13T06:08:24;6.30;99.90
13684;DHT22;6914;53.552;9.908;2023-02-13T06:10:56;6.30;99.90
13684;DHT22;6914;53.552;9.908;2023-02-13T06:13:23;6.30;99.90
13684;DHT22;6914;53.552;9.908;2023-02-13T06:15:50;6.10;99.90
13684;DHT22;6914;53.552;9.908;2023-02-13T06:18:17;6.30;99.90
13684;DHT22;6914;53.552;9.908;2023-02-13T06:20:44;6.20;99.90
13684;DHT22;6914;53.552;9.908;2023-02-13T06:23:11;6.20;99.90
13684;DHT22;6914;53.552;9.908;2023-02-13T06:25:38;6.30;99.90
13684;DHT22;6914;53.552;9.908;2023-02-13T06:28:06;6.30;99.90
13684;DHT22;6914;53.552;9.908;2023-02-13T06:30:33;6.20;99.90
13684;DHT22;6914;53.552;9.908;2023-02-13T06:33:00;6.30;99.90
13684;DHT22;6914;53.552;9.908;2023-02-13T06:35:27;6.80;99.90
13684;DHT22;6914;53.552;9.908;2023-02-13T06:37:56;6.50;99.90
13684;DHT22;6914;53.552;9.908;2023-02-13T06:40:23;6.30;99.90
13684;DHT22;6914;53.552;9.908;2023-02-13T06:42:50;6.30;99.90
13684;DHT22;6914;53.552;9.908;2023-02-13T06:45:18;6.40;99.90
13684;DHT22;6914;53.552;9.908;2023-02-13T06:47:46;6.40;99.90
13684;DHT22;6914;53.552;9.908;2023-02-13T06:50:15;6.20;99.90
13684;DHT22;6914;53.552;9.908;2023-02-13T06:52:45;6.30;99.90
13684;DHT22;6914;53.552;9.908;2023-02-13T06:55:13;6.50;99.90
13684;DHT22;6914;53.552;9.908;2023-02-13T06:57:41;6.40;99.90
13684;DHT22;6914;53.552;9.908;2023-02-13T07:00:09;6.50;99.90
13684;DHT22;6914;53.552;9.908;2023-02-13T07:02:39;6.20;99.90
13684;DHT22;6914;53.552;9.908;2023-02-13T07:05:06;6.40;99.90
13684;DHT22;6914;53.552;9.908;2023-02-13T07:07:34;6.40;99.90
13684;DHT22;6914;53.552;9.908;2023-02-13T07:10:01;6.60;99.90
13684;DHT22;6914;53.552;9.908;2023-02-13T07:12:28;6.30;99.90
13684;DHT22;6914;53.552;9.908;2023-02-13T07:14:55;6.40;99.90
13684;DHT22;6914;53.552;9.908;2023-02-13T07:17:24;6.30;99.90
13684;DHT22;6914;53.552;9.908;2023-02-13T07:19:53;6.50;99.90
13684;DHT22;6914;53.552;9.908;2023-02-13T07:22:20;6.40;99.90
13684;DHT22;6914;53.552;9.908;2023-02-13T07:24:47;6.30;99.90
13684;DHT22;6914;53.552;9.908;2023-02-13T07:27:14;6.30;99.90
13684;DHT22;6914;53.552;9.908;2023-02-13T07:29:41;6.30;99.90
13684;DHT22;6914;53.552;9.908;2023-02-13T07:32:08;6.30;99.90
13684;DHT22;6914;53.552;9.908;2023-02-13T07:34:34;6.20;99.90
13684;DHT22;6914;53.552;9.908;2023-02-13T07:37:02;6.30;99.90
13684;DHT22;6914;53.552;9.908;2023-02-13T07:39:29;6.40;99.90
13684;DHT22;6914;53.552;9.908;2023-02-13T07:41:59;6.70;99.90
13684;DHT22;6914;53.552;9.908;2023-02-13T07:44:25;6.40;99.90
13684;DHT22;6914;53.552;9.908;2023-02-13T07:46:53;6.40;99.90
13684;DHT22;6914;53.552;9.908;2023-02-13T07:49:20;6.30;99.90
13684;DHT22;6914;53.552;9.908;2023-02-13T07:51:47;6.50;99.90
13684;DHT22;6914;53.552;9.908;2023-02-13T07:54:15;6.40;99.90
13684;DHT22;6914;53.552;9.908;2023-02-13T07:56:42;6.80;99.90
13684;DHT22;6914;53.552;9.908;2023-02-13T07:59:09;6.50;99.90
13684;DHT22;6914;53.552;9.908;2023-02-13T08:01:36;6.50;99.90
13684;DHT22;6914;53.552;9.908;2023-02-13T08:04:03;6.70;99.90
13684;DHT22;6914;53.552;9.908;2023-02-13T08:06:30;6.60;99.90
13684;DHT22;6914;53.552;9.908;2023-02-13T08:09:00;6.50;99.90
13684;DHT22;6914;53.552;9.908;2023-02-13T08:11:45;6.60;99.90
13684;DHT22;6914;53.552;9.908;2023-02-13T08:14:23;6.50;99.90
13684;DHT22;6914;53.552;9.908;2023-02-13T08:16:51;6.30;99.90
13684;DHT22;6914;53.552;9.908;2023-02-13T08:19:18;6.40;99.90
13684;DHT22;6914;53.552;9.908;2023-02-13T08:21:45;6.50;99.90
13684;DHT22;6914;53.552;9.908;2023-02-13T08:24:12;6.50;99.90
13684;DHT22;6914;53.552;9.908;2023-02-13T08:26:39;6.30;99.90
13684;DHT22;6914;53.552;9.908;2023-02-13T08:29:07;6.20;99.90
13684;DHT22;6914;53.552;9.908;2023-02-13T08:31:34;6.60;99.90
13684;DHT22;6914;53.552;9.908;2023-02-13T08:34:01;6.70;99.90
13684;DHT22;6914;53.552;9.908;2023-02-13T08:36:29;6.50;99.90
13684;DHT22;6914;53.552;9.908;2023-02-13T08:39:02;6.90;99.90
13684;DHT22;6914;53.552;9.908;2023-02-13T08:41:29;6.90;99.90
13684;DHT22;6914;53.552;9.908;2023-02-13T08:44:02;6.70;99.90
13684;DHT22;6914;53.552;9.908;2023-02-13T08:46:30;6.80;99.90
13684;DHT22;6914;53.552;9.908;2023-02-13T08:49:02;6.70;99.90
13684;DHT22;6914;53.552;9.908;2023-02-13T08:51:29;6.80;99.90
13684;DHT22;6914;53.552;9.908;2023-02-13T08:53:57;6.70;99.90
13684;DHT22;6914;53.552;9.908;2023-02-13T08:56:26;6.20;99.90
13684;DHT22;6914;53.552;9.908;2023-02-13T08:58:54;6.80;99.90
13684;DHT22;6914;53.552;9.908;2023-02-13T09:01:20;6.70;99.90
13684;DHT22;6914;53.552;9.908;2023-02-13T09:03:49;7.10;99.90
13684;DHT22;6914;53.552;9.908;2023-02-13T09:06:16;6.90;99.90
13684;DHT22;6914;53.552;9.908;2023-02-13T09:08:43;6.90;99.90
13684;DHT22;6914;53.552;9.908;2023-02-13T09:11:11;7.10;99.90
13684;DHT22;6914;53.552;9.908;2023-02-13T09:13:38;6.90;99.90
13684;DHT22;6914;53.552;9.908;2023-02-13T09:16:06;6.90;99.90
13684;DHT22;6914;53.552;9.908;2023-02-13T09:18:33;7.20;99.90
13684;DHT22;6914;53.552;9.908;2023-02-13T09:21:07;7.00;99.90
13684;DHT22;6914;53.552;9.908;2023-02-13T09:23:35;7.00;99.90
13684;DHT22;6914;53.552;9.908;2023-02-13T09:26:06;6.90;99.90
13684;DHT22;6914;53.552;9.908;2023-02-13T09:28:34;7.00;99.90
13684;DHT22;6914;53.552;9.908;2023-02-13T09:31:04;7.00;99.90
13684;DHT22;6914;53.552;9.908;2023-02-13T09:33:31;7.00;99.90
13684;DHT22;6914;53.552;9.908;2023-02-13T09:36:04;7.80;99.90
13684;DHT22;6914;53.552;9.908;2023-02-13T09:38:32;7.50;99.90
13684;DHT22;6914;53.552;9.908;2023-02-13T09:41:03;7.10;99.90
13684;DHT22;6914;53.552;9.908;2023-02-13T09:43:32;7.10;99.90
13684;DHT22;6914;53.552;9.908;2023-02-13T09:46:06;7.00;99.90
13684;DHT22;6914;53.552;9.908;2023-02-13T09:48:36;7.10;99.90
13684;DHT22;6914;53.552;9.908;2023-02-13T09:51:06;7.10;99.90
13684;DHT22;6914;53.552;9.908;2023-02-13T09:53:32;7.20;99.90
13684;DHT22;6914;53.552;9.908;2023-02-13T09:56:09;7.30;99.90
13684;DHT22;6914;53.552;9.908;2023-02-13T09:58:43;7.30;99.90
13684;DHT22;6914;53.552;9.908;2023-02-13T10:01:20;7.30;99.90
13684;DHT22;6914;53.552;9.908;2023-02-13T10:04:06;7.50;99.90
13684;DHT22;6914;53.552;9.908;2023-02-13T10:06:42;7.40;99.90
13684;DHT22;6914;53.552;9.908;2023-02-13T10:09:21;7.30;99.90
13684;DHT22;6914;53.552;9.908;2023-02-13T10:12:17;7.30;99.90
13684;DHT22;6914;53.552;9.908;2023-02-13T10:14:55;7.20;99.90
13684;DHT22;6914;53.552;9.908;2023-02-13T10:17:30;7.20;99.90
13684;DHT22;6914;53.552;9.908;2023-02-13T10:20:04;7.20;99.90
13684;DHT22;6914;53.552;9.908;2023-02-13T10:22:39;7.40;99.90
13684;DHT22;6914;53.552;9.908;2023-02-13T10:25:13;7.20;99.90
13684;DHT22;6914;53.552;9.908;2023-02-13T10:27:46;7.10;99.90
13684;DHT22;6914;53.552;9.908;2023-02-13T10:30:20;7.30;99.90
13684;DHT22;6914;53.552;9.908;2023-02-13T10:32:54;7.50;99.90
13684;DHT22;6914;53.552;9.908;2023-02-13T10:35:37;7.20;99.90
13684;DHT22;6914;53.552;9.908;2023-02-13T10:38:14;7.30;99.90
13684;DHT22;6914;53.552;9.908;2023-02-13T10:40:51;7.40;99.90
13684;DHT22;6914;53.552;9.908;2023-02-13T10:43:21;7.40;99.90
13684;DHT22;6914;53.552;9.908;2023-02-13T10:46:04;7.50;99.90
13684;DHT22;6914;53.552;9.908;2023-02-13T10:48:49;7.60;99.90
13684;DHT22;6914;53.552;9.908;2023-02-13T10:51:27;7.60;99.90
13684;DHT22;6914;53.552;9.908;2023-02-13T10:54:15;7.70;99.90
13684;DHT22;6914;53.552;9.908;2023-02-13T10:56:47;7.70;99.90
13684;DHT22;6914;53.552;9.908;2023-02-13T10:59:36;7.80;99.90
13684;DHT22;6914;53.552;9.908;2023-02-13T11:02:20;7.80;99.90
13684;DHT22;6914;53.552;9.908;2023-02-13T11:04:51;7.70;99.90
13684;DHT22;6914;53.552;9.908;2023-02-13T11:07:23;7.70;99.90
13684;DHT22;6914;53.552;9.908;2023-02-13T11:09:55;8.00;99.90
13684;DHT22;6914;53.552;9.908;2023-02-13T11:12:29;7.70;99.90
13684;DHT22;6914;53.552;9.908;2023-02-13T11:15:20;8.10;99.90
13684;DHT22;6914;53.552;9.908;2023-02-13T11:17:48;7.80;99.90
13684;DHT22;6914;53.552;9.908;2023-02-13T11:20:29;7.80;99.90
13684;DHT22;6914;53.552;9.908;2023-02-13T11:23:25;8.00;99.90
13684;DHT22;6914;53.552;9.908;2023-02-13T11:26:01;8.00;99.90
13684;DHT22;6914;53.552;9.908;2023-02-13T11:28:30;8.10;99.90
13684;DHT22;6914;53.552;9.908;2023-02-13T11:31:21;8.10;99.90
13684;DHT22;6914;53.552;9.908;2023-02-13T11:33:48;8.00;99.90
13684;DHT22;6914;53.552;9.908;2023-02-13T11:36:21;8.00;99.90
13684;DHT22;6914;53.552;9.908;2023-02-13T11:38:57;7.90;99.90
13684;DHT22;6914;53.552;9.908;2023-02-13T11:41:29;7.80;99.90
13684;DHT22;6914;53.552;9.908;2023-02-13T11:44:00;7.80;99.90
13684;DHT22;6914;53.552;9.908;2023-02-13T11:46:41;7.90;99.90
13684;DHT22;6914;53.552;9.908;2023-02-13T11:49:16;7.80;99.90
13684;DHT22;6914;53.552;9.908;2023-02-13T11:51:46;8.00;99.90
13684;DHT22;6914;53.552;9.908;2023-02-13T11:54:32;8.00;99.90
13684;DHT22;6914;53.552;9.908;2023-02-13T11:57:18;7.90;99.90
13684;DHT22;6914;53.552;9.908;2023-02-13T11:59:46;8.10;99.90
13684;DHT22;6914;53.552;9.908;2023-02-13T12:02:16;7.90;99.90
13684;DHT22;6914;53.552;9.908;2023-02-13T12:04:44;7.90;99.90
13684;DHT22;6914;53.552;9.908;2023-02-13T12:07:15;7.90;99.90
13684;DHT22;6914;53.552;9.908;2023-02-13T12:09:46;8.00;99.90
13684;DHT22;6914;53.552;9.908;2023-02-13T12:12:20;7.90;99.90
13684;DHT22;6914;53.552;9.908;2023-02-13T12:14:48;9.30;99.90
13684;DHT22;6914;53.552;9.908;2023-02-13T12:17:17;8.00;99.90
13684;DHT22;6914;53.552;9.908;2023-02-13T12:19:48;8.10;99.90
13684;DHT22;6914;53.552;9.908;2023-02-13T12:22:28;8.30;99.90
13684;DHT22;6914;53.552;9.908;2023-02-13T12:25:27;8.30;99.90
13684;DHT22;6914;53.552;9.908;2023-02-13T12:28:10;8.50;99.90
13684;DHT22;6914;53.552;9.908;2023-02-13T12:30:58;8.10;99.90
13684;DHT22;6914;53.552;9.908;2023-02-13T12:33:41;8.50;99.90
13684;DHT22;6914;53.552;9.908;2023-02-13T12:36:17;8.20;99.90
13684;DHT22;6914;53.552;9.908;2023-02-13T12:38:56;8.40;99.90
13684;DHT22;6914;53.552;9.908;2023-02-13T12:41:35;8.10;99.90
13684;DHT22;6914;53.552;9.908;2023-02-13T12:44:26;8.10;99.90
13684;DHT22;6914;53.552;9.908;2023-02-13T12:47:05;8.00;99.90
13684;DHT22;6914;53.552;9.908;2023-02-13T12:49:48;8.10;99.90
13684;DHT22;6914;53.552;9.908;2023-02-13T12:52:29;8.00;99.90
13684;DHT22;6914;53.552;9.908;2023-02-13T12:55:14;7.90;99.90
13684;DHT22;6914;53.552;9.908;2023-02-13T12:57:54;8.00;99.90
13684;DHT22;6914;53.552;9.908;2023-02-13T13:00:33;7.90;99.90
13684;DHT22;6914;53.552;9.908;2023-02-13T13:03:31;8.10;99.90
13684;DHT22;6914;53.552;9.908;2023-02-13T13:06:09;8.00;99.90
13684;DHT22;6914;53.552;9.908;2023-02-13T13:08:50;8.00;99.90
13684;DHT22;6914;53.552;9.908;2023-02-13T13:11:31;8.40;99.90
13684;DHT22;6914;53.552;9.908;2023-02-13T13:14:07;8.10;99.90
13684;DHT22;6914;53.552;9.908;2023-02-13T13:16:44;8.00;99.90
13684;DHT22;6914;53.552;9.908;2023-02-13T13:19:26;7.90;99.90
13684;DHT22;6914;53.552;9.908;2023-02-13T13:22:03;8.10;99.90
13684;DHT22;6914;53.552;9.908;2023-02-13T13:24:41;8.20;99.90
13684;DHT22;6914;53.552;9.908;2023-02-13T13:27:17;8.10;99.90
13684;DHT22;6914;53.552;9.908;2023-02-13T13:29:52;8.10;99.90
13684;DHT22;6914;53.552;9.908;2023-02-13T13:32:21;7.10;99.90
13684;DHT22;6914;53.552;9.908;2023-02-13T13:34:49;7.90;99.90
13684;DHT22;6914;53.552;9.908;2023-02-13T13:37:23;8.30;99.90
13684;DHT22;6914;53.552;9.908;2023-02-13T13:39:57;8.40;99.90
13684;DHT22;6914;53.552;9.908;2023-02-13T13:42:34;8.10;99.90
13684;DHT22;6914;53.552;9.908;2023-02-13T13:45:17;8.30;99.90
13684;DHT22;6914;53.552;9.908;2023-02-13T13:48:05;7.90;99.90
13684;DHT22;6914;53.552;9.908;2023-02-13T13:50:40;8.00;99.90
13684;DHT22;6914;53.552;9.908;2023-02-13T13:53:11;8.00;99.90
13684;DHT22;6914;53.552;9.908;2023-02-13T13:56:07;8.00;99.90
13684;DHT22;6914;53.552;9.908;2023-02-13T13:58:42;8.00;99.90
13684;DHT22;6914;53.552;9.908;2023-02-13T14:01:24;9.20;99.90
13684;DHT22;6914;53.552;9.908;2023-02-13T14:03:54;8.10;99.90
13684;DHT22;6914;53.552;9.908;2023-02-13T14:06:23;8.00;99.90
13684;DHT22;6914;53.552;9.908;2023-02-13T14:09:06;9.10;99.90
13684;DHT22;6914;53.552;9.908;2023-02-13T14:11:53;8.10;99.90
13684;DHT22;6914;53.552;9.908;2023-02-13T14:14:51;8.00;99.90
13684;DHT22;6914;53.552;9.908;2023-02-13T14:17:49;8.00;99.90
13684;DHT22;6914;53.552;9.908;2023-02-13T14:20:26;8.00;99.90
13684;DHT22;6914;53.552;9.908;2023-02-13T14:22:55;8.10;99.90
13684;DHT22;6914;53.552;9.908;2023-02-13T14:25:23;8.00;99.90
13684;DHT22;6914;53.552;9.908;2023-02-13T14:27:55;8.00;99.90
13684;DHT22;6914;53.552;9.908;2023-02-13T14:30:27;7.80;99.90
13684;DHT22;6914;53.552;9.908;2023-02-13T14:32:54;8.50;99.90
13684;DHT22;6914;53.552;9.908;2023-02-13T14:35:25;7.70;99.90
13684;DHT22;6914;53.552;9.908;2023-02-13T14:37:54;7.70;99.90
13684;DHT22;6914;53.552;9.908;2023-02-13T14:43:26;7.70;99.90
13684;DHT22;6914;53.552;9.908;2023-02-13T14:45:55;7.60;99.90
13684;DHT22;6914;53.552;9.908;2023-02-13T14:48:35;7.60;99.90
13684;DHT22;6914;53.552;9.908;2023-02-13T14:51:11;7.60;99.90
13684;DHT22;6914;53.552;9.908;2023-02-13T14:53:48;7.90;99.90
13684;DHT22;6914;53.552;9.908;2023-02-13T14:56:19;7.70;99.90
13684;DHT22;6914;53.552;9.908;2023-02-13T14:58:50;7.70;99.90
13684;DHT22;6914;53.552;9.908;2023-02-13T15:01:25;7.60;99.90
13684;DHT22;6914;53.552;9.908;2023-02-13T15:03:58;7.90;99.90
13684;DHT22;6914;53.552;9.908;2023-02-13T15:06:34;7.50;99.90
13684;DHT22;6914;53.552;9.908;2023-02-13T15:09:19;7.60;99.90
13684;DHT22;6914;53.552;9.908;2023-02-13T15:11:47;7.60;99.90
13684;DHT22;6914;53.552;9.908;2023-02-13T15:14:21;7.60;99.90
13684;DHT22;6914;53.552;9.908;2023-02-13T15:16:53;7.60;99.90
13684;DHT22;6914;53.552;9.908;2023-02-13T15:19:22;7.60;99.90
13684;DHT22;6914;53.552;9.908;2023-02-13T15:21:53;7.50;99.90
13684;DHT22;6914;53.552;9.908;2023-02-13T15:24:21;7.50;99.90
13684;DHT22;6914;53.552;9.908;2023-02-13T15:26:57;7.40;99.90
13684;DHT22;6914;53.552;9.908;2023-02-13T15:29:26;7.60;99.90
13684;DHT22;6914;53.552;9.908;2023-02-13T15:31:53;7.10;99.90
13684;DHT22;6914;53.552;9.908;2023-02-13T15:34:23;7.80;99.90
13684;DHT22;6914;53.552;9.908;2023-02-13T15:36:52;7.20;99.90
13684;DHT22;6914;53.552;9.908;2023-02-13T15:39:23;7.20;99.90
13684;DHT22;6914;53.552;9.908;2023-02-13T15:41:52;7.80;99.90
13684;DHT22;6914;53.552;9.908;2023-02-13T15:44:22;5.70;99.90
13684;DHT22;6914;53.552;9.908;2023-02-13T15:46:52;7.00;99.90
13684;DHT22;6914;53.552;9.908;2023-02-13T15:49:21;7.20;99.90
13684;DHT22;6914;53.552;9.908;2023-02-13T15:51:50;7.10;99.90
13684;DHT22;6914;53.552;9.908;2023-02-13T15:54:29;7.40;99.90
13684;DHT22;6914;53.552;9.908;2023-02-13T15:56:59;7.20;99.90
13684;DHT22;6914;53.552;9.908;2023-02-13T15:59:31;7.10;99.90
13684;DHT22;6914;53.552;9.908;2023-02-13T16:02:00;7.10;99.90
13684;DHT22;6914;53.552;9.908;2023-02-13T16:04:27;7.00;99.90
13684;DHT22;6914;53.552;9.908;2023-02-13T16:06:57;7.10;99.90
13684;DHT22;6914;53.552;9.908;2023-02-13T16:09:31;6.90;99.90
13684;DHT22;6914;53.552;9.908;2023-02-13T16:12:03;6.90;99.90
13684;DHT22;6914;53.552;9.908;2023-02-13T16:14:35;6.90;99.90
13684;DHT22;6914;53.552;9.908;2023-02-13T16:17:16;6.90;99.90
13684;DHT22;6914;53.552;9.908;2023-02-13T16:19:51;6.90;99.90
13684;DHT22;6914;53.552;9.908;2023-02-13T16:22:27;7.00;99.90
13684;DHT22;6914;53.552;9.908;2023-02-13T16:25:05;7.00;99.90
13684;DHT22;6914;53.552;9.908;2023-02-13T16:27:34;7.00;99.90
13684;DHT22;6914;53.552;9.908;2023-02-13T16:30:04;6.80;99.90
13684;DHT22;6914;53.552;9.908;2023-02-13T16:32:33;6.90;99.90
13684;DHT22;6914;53.552;9.908;2023-02-13T16:35:26;6.90;99.90
13684;DHT22;6914;53.552;9.908;2023-02-13T16:37:57;6.80;99.90
13684;DHT22;6914;53.552;9.908;2023-02-13T16:40:34;6.50;99.90
13684;DHT22;6914;53.552;9.908;2023-02-13T16:43:34;6.80;99.90
13684;DHT22;6914;53.552;9.908;2023-02-13T16:46:23;6.80;99.90
13684;DHT22;6914;53.552;9.908;2023-02-13T16:49:01;6.80;99.90
13684;DHT22;6914;53.552;9.908;2023-02-13T16:51:33;6.90;99.90